sensor_id;sensor_type;location;lat;lon;timestamp;temperature;humidity
33492;DHT22;20010;51.488;7.232;2022-10-26T00:01:02;11.70;99.90
33492;DHT22;20010;51.488;7.232;2022-10-26T00:03:29;11.70;99.90
33492;DHT22;20010;51.488;7.232;2022-10-26T00:06:02;11.70;99.90
33492;DHT22;20010;51.488;7.232;2022-10-26T00:08:29;11.70;99.90
33492;DHT22;20010;51.488;7.232;2022-10-26T00:10:56;11.70;99.90
33492;DHT22;20010;51.488;7.232;2022-10-26T00:13:23;11.70;99.90
33492;DHT22;20010;51.488;7.232;2022-10-26T00:15:50;11.60;99.90
33492;DHT22;20010;51.488;7.232;2022-10-26T00:18:16;11.70;99.90
33492;DHT22;20010;51.488;7.232;2022-10-26T00:20:43;11.70;99.90
33492;DHT22;20010;51.488;7.232;2022-10-26T00:23:10;11.60;99.90
33492;DHT22;20010;51.488;7.232;2022-10-26T00:25:37;11.60;99.90
33492;DHT22;20010;51.488;7.232;2022-10-26T00:28:03;11.70;99.90
33492;DHT22;20010;51.488;7.232;2022-10-26T00:30:30;11.70;99.90
33492;DHT22;20010;51.488;7.232;2022-10-26T00:32:57;11.70;99.90
33492;DHT22;20010;51.488;7.232;2022-10-26T00:35:24;11.60;99.90
33492;DHT22;20010;51.488;7.232;2022-10-26T00:38:10;11.60;99.90
33492;DHT22;20010;51.488;7.232;2022-10-26T00:40:37;11.60;99.90
33492;DHT22;20010;51.488;7.232;2022-10-26T00:43:10;11.60;99.90
33492;DHT22;20010;51.488;7.232;2022-10-26T00:45:39;11.70;99.90
33492;DHT22;20010;51.488;7.232;2022-10-26T00:48:07;11.60;99.90
33492;DHT22;20010;51.488;7.232;2022-10-26T00:50:40;11.70;99.90
33492;DHT22;20010;51.488;7.232;2022-10-26T00:53:09;11.70;99.90
33492;DHT22;20010;51.488;7.232;2022-10-26T00:55:39;11.60;99.90
33492;DHT22;20010;51.488;7.232;2022-10-26T00:58:08;11.70;99.90
33492;DHT22;20010;51.488;7.232;2022-10-26T01:00:36;11.70;99.90
33492;DHT22;20010;51.488;7.232;2022-10-26T01:03:06;11.60;99.90
33492;DHT22;20010;51.488;7.232;2022-10-26T01:05:37;11.60;99.90
33492;DHT22;20010;51.488;7.232;2022-10-26T01:08:06;11.60;99.90
33492;DHT22;20010;51.488;7.232;2022-10-26T01:10:35;11.60;99.90
33492;DHT22;20010;51.488;7.232;2022-10-26T01:13:03;11.70;99.90
33492;DHT22;20010;51.488;7.232;2022-10-26T01:21:15;11.70;99.90
33492;DHT22;20010;51.488;7.232;2022-10-26T01:31:52;11.80;99.90
33492;DHT22;20010;51.488;7.232;2022-10-26T01:34:27;11.80;99.90
33492;DHT22;20010;51.488;7.232;2022-10-26T01:37:03;11.80;99.90
33492;DHT22;20010;51.488;7.232;2022-10-26T01:39:40;11.80;99.90
33492;DHT22;20010;51.488;7.232;2022-10-26T01:42:10;11.80;99.90
33492;DHT22;20010;51.488;7.232;2022-10-26T01:44:46;11.80;99.90
33492;DHT22;20010;51.488;7.232;2022-10-26T01:47:15;11.90;99.90
33492;DHT22;20010;51.488;7.232;2022-10-26T01:49:47;11.90;99.90
33492;DHT22;20010;51.488;7.232;2022-10-26T01:52:17;11.90;99.90
33492;DHT22;20010;51.488;7.232;2022-10-26T01:54:44;11.90;99.90
33492;DHT22;20010;51.488;7.232;2022-10-26T01:57:14;11.90;99.90
33492;DHT22;20010;51.488;7.232;2022-10-26T02:05:34;11.90;99.90
33492;DHT22;20010;51.488;7.232;2022-10-26T02:16:20;12.10;99.90
33492;DHT22;20010;51.488;7.232;2022-10-26T02:18:50;12.20;99.90
33492;DHT22;20010;51.488;7.232;2022-10-26T02:21:25;12.20;99.90
33492;DHT22;20010;51.488;7.232;2022-10-26T02:23:55;12.30;99.90
33492;DHT22;20010;51.488;7.232;2022-10-26T02:26:26;12.30;99.90
33492;DHT22;20010;51.488;7.232;2022-10-26T02:28:57;12.30;99.90
33492;DHT22;20010;51.488;7.232;2022-10-26T02:31:26;12.40;99.90
33492;DHT22;20010;51.488;7.232;2022-10-26T02:33:56;12.40;99.90
33492;DHT22;20010;51.488;7.232;2022-10-26T02:36:27;12.50;99.90
33492;DHT22;20010;51.488;7.232;2022-10-26T02:38:55;12.50;99.90
33492;DHT22;20010;51.488;7.232;2022-10-26T02:41:25;12.50;99.90
33492;DHT22;20010;51.488;7.232;2022-10-26T02:43:59;12.50;99.90
33492;DHT22;20010;51.488;7.232;2022-10-26T02:46:27;12.50;99.90
33492;DHT22;20010;51.488;7.232;2022-10-26T02:48:55;12.50;99.90
33492;DHT22;20010;51.488;7.232;2022-10-26T02:56:33;12.50;99.90
33492;DHT22;20010;51.488;7.232;2022-10-26T02:59:04;12.60;99.90
33492;DHT22;20010;51.488;7.232;2022-10-26T03:01:33;12.60;99.90
33492;DHT22;20010;51.488;7.232;2022-10-26T03:04:00;12.60;99.90
33492;DHT22;20010;51.488;7.232;2022-10-26T03:06:27;12.60;99.90
33492;DHT22;20010;51.488;7.232;2022-10-26T03:08:53;12.70;99.90
33492;DHT22;20010;51.488;7.232;2022-10-26T03:11:20;12.70;99.90
33492;DHT22;20010;51.488;7.232;2022-10-26T03:13:47;12.70;99.90
33492;DHT22;20010;51.488;7.232;2022-10-26T03:16:14;12.80;99.90
33492;DHT22;20010;51.488;7.232;2022-10-26T03:18:40;12.80;99.90
33492;DHT22;20010;51.488;7.232;2022-10-26T03:21:07;12.90;99.90
33492;DHT22;20010;51.488;7.232;2022-10-26T03:23:34;12.90;99.90
33492;DHT22;20010;51.488;7.232;2022-10-26T03:26:01;13.00;99.90
33492;DHT22;20010;51.488;7.232;2022-10-26T03:28:27;13.00;99.90
33492;DHT22;20010;51.488;7.232;2022-10-26T03:30:54;13.10;99.90
33492;DHT22;20010;51.488;7.232;2022-10-26T03:33:21;13.20;99.90
33492;DHT22;20010;51.488;7.232;2022-10-26T03:35:54;13.20;99.90
33492;DHT22;20010;51.488;7.232;2022-10-26T03:38:22;13.20;99.90
33492;DHT22;20010;51.488;7.232;2022-10-26T03:40:49;13.20;99.90
33492;DHT22;20010;51.488;7.232;2022-10-26T03:43:16;13.30;99.90
33492;DHT22;20010;51.488;7.232;2022-10-26T03:45:42;13.30;99.90
33492;DHT22;20010;51.488;7.232;2022-10-26T03:48:09;13.40;99.90
33492;DHT22;20010;51.488;7.232;2022-10-26T03:50:36;13.40;99.90
33492;DHT22;20010;51.488;7.232;2022-10-26T03:53:03;13.50;99.90
33492;DHT22;20010;51.488;7.232;2022-10-26T03:55:30;13.50;99.90
33492;DHT22;20010;51.488;7.232;2022-10-26T03:57:56;13.50;99.90
33492;DHT22;20010;51.488;7.232;2022-10-26T04:00:23;13.50;99.90
33492;DHT22;20010;51.488;7.232;2022-10-26T04:02:55;13.60;99.90
33492;DHT22;20010;51.488;7.232;2022-10-26T04:05:23;13.60;99.90
33492;DHT22;20010;51.488;7.232;2022-10-26T04:07:57;13.60;99.90
33492;DHT22;20010;51.488;7.232;2022-10-26T04:10:25;13.70;99.90
33492;DHT22;20010;51.488;7.232;2022-10-26T04:12:53;13.70;99.90
33492;DHT22;20010;51.488;7.232;2022-10-26T04:15:21;13.70;99.90
33492;DHT22;20010;51.488;7.232;2022-10-26T04:17:51;13.80;99.90
33492;DHT22;20010;51.488;7.232;2022-10-26T04:20:20;13.80;99.90
33492;DHT22;20010;51.488;7.232;2022-10-26T04:22:47;13.90;99.90
33492;DHT22;20010;51.488;7.232;2022-10-26T04:25:13;13.90;99.90
33492;DHT22;20010;51.488;7.232;2022-10-26T04:27:40;13.90;99.90
33492;DHT22;20010;51.488;7.232;2022-10-26T04:30:07;13.90;99.90
33492;DHT22;20010;51.488;7.232;2022-10-26T04:32:35;13.90;99.90
33492;DHT22;20010;51.488;7.232;2022-10-26T04:35:02;14.00;99.90
33492;DHT22;20010;51.488;7.232;2022-10-26T04:37:29;14.10;99.90
33492;DHT22;20010;51.488;7.232;2022-10-26T04:39:55;14.00;99.90
33492;DHT22;20010;51.488;7.232;2022-10-26T04:42:22;14.10;99.90
33492;DHT22;20010;51.488;7.232;2022-10-26T04:44:49;14.10;99.90
33492;DHT22;20010;51.488;7.232;2022-10-26T04:47:16;14.10;99.90
33492;DHT22;20010;51.488;7.232;2022-10-26T04:49:42;14.20;99.90
33492;DHT22;20010;51.488;7.232;2022-10-26T04:52:09;14.20;99.90
33492;DHT22;20010;51.488;7.232;2022-10-26T04:54:36;14.20;99.90
33492;DHT22;20010;51.488;7.232;2022-10-26T04:57:02;14.30;99.90
33492;DHT22;20010;51.488;7.232;2022-10-26T04:59:29;14.40;99.90
33492;DHT22;20010;51.488;7.232;2022-10-26T05:01:56;14.50;99.90
33492;DHT22;20010;51.488;7.232;2022-10-26T05:04:25;14.50;99.90
33492;DHT22;20010;51.488;7.232;2022-10-26T05:06:52;14.50;99.90
33492;DHT22;20010;51.488;7.232;2022-10-26T05:09:19;14.50;99.90
33492;DHT22;20010;51.488;7.232;2022-10-26T05:11:46;14.60;99.90
33492;DHT22;20010;51.488;7.232;2022-10-26T05:14:12;14.50;99.90
33492;DHT22;20010;51.488;7.232;2022-10-26T05:16:39;14.60;99.90
33492;DHT22;20010;51.488;7.232;2022-10-26T05:19:06;14.60;99.90
33492;DHT22;20010;51.488;7.232;2022-10-26T05:21:33;14.60;99.90
33492;DHT22;20010;51.488;7.232;2022-10-26T05:23:59;14.60;99.90
33492;DHT22;20010;51.488;7.232;2022-10-26T05:26:26;14.70;99.90
33492;DHT22;20010;51.488;7.232;2022-10-26T05:28:53;14.70;99.90
33492;DHT22;20010;51.488;7.232;2022-10-26T05:31:20;14.70;99.90
33492;DHT22;20010;51.488;7.232;2022-10-26T05:33:48;14.70;99.90
33492;DHT22;20010;51.488;7.232;2022-10-26T05:36:19;14.70;99.90
33492;DHT22;20010;51.488;7.232;2022-10-26T05:38:46;14.80;99.90
33492;DHT22;20010;51.488;7.232;2022-10-26T05:41:13;14.80;99.90
33492;DHT22;20010;51.488;7.232;2022-10-26T05:43:39;14.70;99.90
33492;DHT22;20010;51.488;7.232;2022-10-26T05:46:06;14.70;99.90
33492;DHT22;20010;51.488;7.232;2022-10-26T05:48:33;14.80;99.90
33492;DHT22;20010;51.488;7.232;2022-10-26T05:51:00;14.70;99.90
33492;DHT22;20010;51.488;7.232;2022-10-26T05:53:27;14.70;99.90
33492;DHT22;20010;51.488;7.232;2022-10-26T05:55:55;14.70;99.90
33492;DHT22;20010;51.488;7.232;2022-10-26T05:58:22;14.70;99.90
33492;DHT22;20010;51.488;7.232;2022-10-26T06:06:11;14.70;99.90
33492;DHT22;20010;51.488;7.232;2022-10-26T06:08:38;14.70;99.90
33492;DHT22;20010;51.488;7.232;2022-10-26T06:11:05;14.70;99.90
33492;DHT22;20010;51.488;7.232;2022-10-26T06:13:33;14.70;99.90
33492;DHT22;20010;51.488;7.232;2022-10-26T06:21:22;14.60;99.90
33492;DHT22;20010;51.488;7.232;2022-10-26T06:27:00;14.60;99.90
33492;DHT22;20010;51.488;7.232;2022-10-26T06:30:00;14.60;99.90
33492;DHT22;20010;51.488;7.232;2022-10-26T06:32:27;14.50;99.90
33492;DHT22;20010;51.488;7.232;2022-10-26T06:35:19;14.50;99.90
33492;DHT22;20010;51.488;7.232;2022-10-26T06:37:47;14.50;99.90
33492;DHT22;20010;51.488;7.232;2022-10-26T06:40:16;14.50;99.90
33492;DHT22;20010;51.488;7.232;2022-10-26T06:42:43;14.50;99.90
33492;DHT22;20010;51.488;7.232;2022-10-26T06:45:12;14.50;99.90
33492;DHT22;20010;51.488;7.232;2022-10-26T06:53:26;14.60;99.90
33492;DHT22;20010;51.488;7.232;2022-10-26T06:56:00;14.70;99.90
33492;DHT22;20010;51.488;7.232;2022-10-26T06:58:29;14.60;99.90
33492;DHT22;20010;51.488;7.232;2022-10-26T07:00:58;14.70;99.90
33492;DHT22;20010;51.488;7.232;2022-10-26T07:03:25;14.80;99.90
33492;DHT22;20010;51.488;7.232;2022-10-26T07:05:52;14.80;99.90
33492;DHT22;20010;51.488;7.232;2022-10-26T07:08:19;14.80;99.90
33492;DHT22;20010;51.488;7.232;2022-10-26T07:10:46;14.80;99.90
33492;DHT22;20010;51.488;7.232;2022-10-26T07:13:13;14.80;99.90
33492;DHT22;20010;51.488;7.232;2022-10-26T07:15:40;14.80;99.90
33492;DHT22;20010;51.488;7.232;2022-10-26T07:18:08;14.90;99.90
33492;DHT22;20010;51.488;7.232;2022-10-26T07:20:37;14.90;99.90
33492;DHT22;20010;51.488;7.232;2022-10-26T07:23:06;15.00;99.90
33492;DHT22;20010;51.488;7.232;2022-10-26T07:25:34;15.00;99.90
33492;DHT22;20010;51.488;7.232;2022-10-26T07:28:01;15.00;99.90
33492;DHT22;20010;51.488;7.232;2022-10-26T07:30:28;15.00;99.90
33492;DHT22;20010;51.488;7.232;2022-10-26T07:33:03;15.10;99.90
33492;DHT22;20010;51.488;7.232;2022-10-26T07:35:32;15.10;99.90
33492;DHT22;20010;51.488;7.232;2022-10-26T07:37:59;15.10;99.90
33492;DHT22;20010;51.488;7.232;2022-10-26T07:40:27;15.10;99.90
33492;DHT22;20010;51.488;7.232;2022-10-26T07:42:58;15.20;99.90
33492;DHT22;20010;51.488;7.232;2022-10-26T07:45:26;15.20;99.90
33492;DHT22;20010;51.488;7.232;2022-10-26T07:47:54;15.20;99.90
33492;DHT22;20010;51.488;7.232;2022-10-26T07:50:22;15.20;99.90
33492;DHT22;20010;51.488;7.232;2022-10-26T07:52:49;15.30;99.90
33492;DHT22;20010;51.488;7.232;2022-10-26T07:55:16;15.40;99.90
33492;DHT22;20010;51.488;7.232;2022-10-26T07:57:43;15.40;99.90
33492;DHT22;20010;51.488;7.232;2022-10-26T08:00:11;15.40;99.90
33492;DHT22;20010;51.488;7.232;2022-10-26T08:02:38;15.40;99.90
33492;DHT22;20010;51.488;7.232;2022-10-26T08:05:05;15.40;99.90
33492;DHT22;20010;51.488;7.232;2022-10-26T08:07:32;15.50;99.90
33492;DHT22;20010;51.488;7.232;2022-10-26T08:09:58;15.50;99.90
33492;DHT22;20010;51.488;7.232;2022-10-26T08:12:26;15.50;99.90
33492;DHT22;20010;51.488;7.232;2022-10-26T08:14:52;15.50;99.90
33492;DHT22;20010;51.488;7.232;2022-10-26T08:17:19;15.60;99.90
33492;DHT22;20010;51.488;7.232;2022-10-26T08:19:47;15.60;99.90
33492;DHT22;20010;51.488;7.232;2022-10-26T08:22:15;15.70;99.90
33492;DHT22;20010;51.488;7.232;2022-10-26T08:24:42;15.70;99.90
33492;DHT22;20010;51.488;7.232;2022-10-26T08:27:13;15.80;99.90
33492;DHT22;20010;51.488;7.232;2022-10-26T08:29:40;15.90;99.90
33492;DHT22;20010;51.488;7.232;2022-10-26T08:32:07;16.00;99.90
33492;DHT22;20010;51.488;7.232;2022-10-26T08:34:34;16.00;99.90
33492;DHT22;20010;51.488;7.232;2022-10-26T08:37:01;16.10;99.90
33492;DHT22;20010;51.488;7.232;2022-10-26T08:39:28;16.10;99.90
33492;DHT22;20010;51.488;7.232;2022-10-26T08:42:19;16.10;99.90
33492;DHT22;20010;51.488;7.232;2022-10-26T08:44:50;16.10;99.90
33492;DHT22;20010;51.488;7.232;2022-10-26T08:47:31;16.10;99.90
33492;DHT22;20010;51.488;7.232;2022-10-26T08:50:04;16.10;99.90
33492;DHT22;20010;51.488;7.232;2022-10-26T08:52:43;16.10;99.90
33492;DHT22;20010;51.488;7.232;2022-10-26T08:55:15;16.20;99.90
33492;DHT22;20010;51.488;7.232;2022-10-26T08:57:44;16.20;99.90
33492;DHT22;20010;51.488;7.232;2022-10-26T09:00:19;16.30;99.90
33492;DHT22;20010;51.488;7.232;2022-10-26T09:02:51;16.40;99.90
33492;DHT22;20010;51.488;7.232;2022-10-26T09:05:31;16.50;99.90
33492;DHT22;20010;51.488;7.232;2022-10-26T09:08:08;16.60;99.90
33492;DHT22;20010;51.488;7.232;2022-10-26T09:10:56;16.60;99.90
33492;DHT22;20010;51.488;7.232;2022-10-26T09:13:38;16.60;99.90
33492;DHT22;20010;51.488;7.232;2022-10-26T09:22:16;16.90;99.90
33492;DHT22;20010;51.488;7.232;2022-10-26T09:25:00;17.10;99.90
33492;DHT22;20010;51.488;7.232;2022-10-26T09:27:40;17.20;99.90
33492;DHT22;20010;51.488;7.232;2022-10-26T09:30:17;17.20;99.90
33492;DHT22;20010;51.488;7.232;2022-10-26T09:32:47;17.40;99.90
33492;DHT22;20010;51.488;7.232;2022-10-26T09:35:28;17.50;99.90
33492;DHT22;20010;51.488;7.232;2022-10-26T09:40:42;17.70;99.90
33492;DHT22;20010;51.488;7.232;2022-10-26T09:43:17;17.80;99.90
33492;DHT22;20010;51.488;7.232;2022-10-26T09:45:48;17.90;99.90
33492;DHT22;20010;51.488;7.232;2022-10-26T09:48:35;17.90;99.90
33492;DHT22;20010;51.488;7.232;2022-10-26T09:51:04;17.90;99.90
33492;DHT22;20010;51.488;7.232;2022-10-26T09:53:32;18.00;99.90
33492;DHT22;20010;51.488;7.232;2022-10-26T09:56:08;18.00;99.90
33492;DHT22;20010;51.488;7.232;2022-10-26T09:58:47;18.10;99.90
33492;DHT22;20010;51.488;7.232;2022-10-26T10:09:28;17.80;99.90
33492;DHT22;20010;51.488;7.232;2022-10-26T10:11:57;17.80;99.90
33492;DHT22;20010;51.488;7.232;2022-10-26T10:14:33;18.00;99.90
33492;DHT22;20010;51.488;7.232;2022-10-26T10:17:14;18.20;99.90
33492;DHT22;20010;51.488;7.232;2022-10-26T10:19:45;18.30;99.90
33492;DHT22;20010;51.488;7.232;2022-10-26T10:22:19;18.10;99.90
33492;DHT22;20010;51.488;7.232;2022-10-26T10:24:54;18.00;99.90
33492;DHT22;20010;51.488;7.232;2022-10-26T10:27:22;17.90;99.90
33492;DHT22;20010;51.488;7.232;2022-10-26T10:29:51;18.00;99.90
33492;DHT22;20010;51.488;7.232;2022-10-26T10:32:27;18.20;99.90
33492;DHT22;20010;51.488;7.232;2022-10-26T10:35:22;18.30;99.90
33492;DHT22;20010;51.488;7.232;2022-10-26T10:37:49;18.50;99.90
33492;DHT22;20010;51.488;7.232;2022-10-26T10:40:19;18.50;99.90
33492;DHT22;20010;51.488;7.232;2022-10-26T10:42:47;18.60;99.90
33492;DHT22;20010;51.488;7.232;2022-10-26T10:45:24;18.70;99.90
33492;DHT22;20010;51.488;7.232;2022-10-26T10:50:57;19.00;99.90
33492;DHT22;20010;51.488;7.232;2022-10-26T10:56:41;18.90;99.90
33492;DHT22;20010;51.488;7.232;2022-10-26T10:59:22;19.00;99.90
33492;DHT22;20010;51.488;7.232;2022-10-26T11:07:09;19.50;99.90
33492;DHT22;20010;51.488;7.232;2022-10-26T11:09:40;19.50;99.90
33492;DHT22;20010;51.488;7.232;2022-10-26T11:12:18;19.30;99.90
33492;DHT22;20010;51.488;7.232;2022-10-26T11:15:01;19.30;99.90
33492;DHT22;20010;51.488;7.232;2022-10-26T11:17:37;19.30;99.90
33492;DHT22;20010;51.488;7.232;2022-10-26T11:20:27;19.30;99.90
33492;DHT22;20010;51.488;7.232;2022-10-26T11:22:57;19.30;99.90
33492;DHT22;20010;51.488;7.232;2022-10-26T11:28:15;19.30;99.90
33492;DHT22;20010;51.488;7.232;2022-10-26T11:30:52;19.30;99.90
33492;DHT22;20010;51.488;7.232;2022-10-26T11:33:31;19.40;99.90
33492;DHT22;20010;51.488;7.232;2022-10-26T11:36:09;19.50;99.90
33492;DHT22;20010;51.488;7.232;2022-10-26T11:41:50;19.70;99.90
33492;DHT22;20010;51.488;7.232;2022-10-26T11:47:00;19.80;99.90
33492;DHT22;20010;51.488;7.232;2022-10-26T11:49:57;19.90;99.90
33492;DHT22;20010;51.488;7.232;2022-10-26T11:52:37;20.00;99.90
33492;DHT22;20010;51.488;7.232;2022-10-26T11:55:07;20.00;99.90
33492;DHT22;20010;51.488;7.232;2022-10-26T11:57:36;20.10;99.90
33492;DHT22;20010;51.488;7.232;2022-10-26T12:00:17;20.20;99.90
33492;DHT22;20010;51.488;7.232;2022-10-26T12:03:00;20.30;99.90
33492;DHT22;20010;51.488;7.232;2022-10-26T12:08:34;20.50;99.90
33492;DHT22;20010;51.488;7.232;2022-10-26T12:11:08;20.70;99.90
33492;DHT22;20010;51.488;7.232;2022-10-26T12:13:46;21.00;99.90
33492;DHT22;20010;51.488;7.232;2022-10-26T12:18:58;20.90;99.90
33492;DHT22;20010;51.488;7.232;2022-10-26T12:21:28;20.80;99.90
33492;DHT22;20010;51.488;7.232;2022-10-26T12:26:58;20.80;99.90
33492;DHT22;20010;51.488;7.232;2022-10-26T12:31:56;20.60;99.90
33492;DHT22;20010;51.488;7.232;2022-10-26T12:39:30;20.60;99.90
33492;DHT22;20010;51.488;7.232;2022-10-26T12:41:57;20.80;99.90
33492;DHT22;20010;51.488;7.232;2022-10-26T12:47:04;21.10;99.90
33492;DHT22;20010;51.488;7.232;2022-10-26T12:52:45;21.20;99.90
33492;DHT22;20010;51.488;7.232;2022-10-26T12:58:32;21.20;99.90
33492;DHT22;20010;51.488;7.232;2022-10-26T13:03:55;21.10;99.90
33492;DHT22;20010;51.488;7.232;2022-10-26T13:08:56;21.00;99.90
33492;DHT22;20010;51.488;7.232;2022-10-26T13:11:35;21.10;99.90
33492;DHT22;20010;51.488;7.232;2022-10-26T13:14:07;21.20;99.90
33492;DHT22;20010;51.488;7.232;2022-10-26T13:16:44;21.20;99.90
33492;DHT22;20010;51.488;7.232;2022-10-26T13:19:42;21.00;99.90
33492;DHT22;20010;51.488;7.232;2022-10-26T13:22:18;20.80;99.90
33492;DHT22;20010;51.488;7.232;2022-10-26T13:27:38;21.00;99.90
33492;DHT22;20010;51.488;7.232;2022-10-26T13:30:12;21.00;99.90
33492;DHT22;20010;51.488;7.232;2022-10-26T13:32:53;21.10;99.90
33492;DHT22;20010;51.488;7.232;2022-10-26T13:35:23;21.30;99.90
33492;DHT22;20010;51.488;7.232;2022-10-26T13:37:52;21.50;99.90
33492;DHT22;20010;51.488;7.232;2022-10-26T13:40:22;21.70;99.90
33492;DHT22;20010;51.488;7.232;2022-10-26T13:42:57;21.60;99.90
33492;DHT22;20010;51.488;7.232;2022-10-26T13:45:30;21.90;99.90
33492;DHT22;20010;51.488;7.232;2022-10-26T13:48:14;22.20;99.90
33492;DHT22;20010;51.488;7.232;2022-10-26T13:50:51;22.40;99.90
33492;DHT22;20010;51.488;7.232;2022-10-26T13:56:02;22.50;99.90
33492;DHT22;20010;51.488;7.232;2022-10-26T13:58:36;22.50;99.90
33492;DHT22;20010;51.488;7.232;2022-10-26T14:03:37;22.40;99.90
33492;DHT22;20010;51.488;7.232;2022-10-26T14:06:26;22.30;99.90
33492;DHT22;20010;51.488;7.232;2022-10-26T14:08:57;22.20;99.90
33492;DHT22;20010;51.488;7.232;2022-10-26T14:11:41;22.00;99.90
33492;DHT22;20010;51.488;7.232;2022-10-26T14:14:21;21.90;99.90
33492;DHT22;20010;51.488;7.232;2022-10-26T14:16:50;21.90;99.90
33492;DHT22;20010;51.488;7.232;2022-10-26T14:21:54;21.90;99.90
33492;DHT22;20010;51.488;7.232;2022-10-26T14:24:36;21.90;99.90
33492;DHT22;20010;51.488;7.232;2022-10-26T14:27:18;21.90;99.90
33492;DHT22;20010;51.488;7.232;2022-10-26T14:29:45;21.90;99.90
33492;DHT22;20010;51.488;7.232;2022-10-26T14:32:32;21.70;99.90
33492;DHT22;20010;51.488;7.232;2022-10-26T14:34:59;21.70;99.90
33492;DHT22;20010;51.488;7.232;2022-10-26T14:40:01;21.70;99.90
33492;DHT22;20010;51.488;7.232;2022-10-26T14:42:31;21.70;99.90
33492;DHT22;20010;51.488;7.232;2022-10-26T14:45:00;21.50;99.90
33492;DHT22;20010;51.488;7.232;2022-10-26T14:47:32;21.30;99.90
33492;DHT22;20010;51.488;7.232;2022-10-26T14:49:59;21.20;99.90
33492;DHT22;20010;51.488;7.232;2022-10-26T14:52:34;21.00;99.90
33492;DHT22;20010;51.488;7.232;2022-10-26T14:55:13;20.80;99.90
33492;DHT22;20010;51.488;7.232;2022-10-26T14:57:42;20.70;99.90
33492;DHT22;20010;51.488;7.232;2022-10-26T15:00:17;20.60;99.90
33492;DHT22;20010;51.488;7.232;2022-10-26T15:02:49;20.50;99.90
33492;DHT22;20010;51.488;7.232;2022-10-26T15:05:29;20.50;99.90
33492;DHT22;20010;51.488;7.232;2022-10-26T15:08:01;20.50;99.90
33492;DHT22;20010;51.488;7.232;2022-10-26T15:15:51;20.30;99.90
33492;DHT22;20010;51.488;7.232;2022-10-26T15:18:28;20.20;99.90
33492;DHT22;20010;51.488;7.232;2022-10-26T15:20:56;20.10;99.90
33492;DHT22;20010;51.488;7.232;2022-10-26T15:23:24;20.00;99.90
33492;DHT22;20010;51.488;7.232;2022-10-26T15:26:01;20.00;99.90
33492;DHT22;20010;51.488;7.232;2022-10-26T15:36:10;19.70;99.90
33492;DHT22;20010;51.488;7.232;2022-10-26T15:38:38;19.60;99.90
33492;DHT22;20010;51.488;7.232;2022-10-26T15:41:28;19.60;99.90
33492;DHT22;20010;51.488;7.232;2022-10-26T15:43:56;19.50;99.90
33492;DHT22;20010;51.488;7.232;2022-10-26T15:46:24;19.40;99.90
33492;DHT22;20010;51.488;7.232;2022-10-26T15:48:56;19.40;99.90
33492;DHT22;20010;51.488;7.232;2022-10-26T15:51:23;19.30;99.90
33492;DHT22;20010;51.488;7.232;2022-10-26T15:53:51;19.20;99.90
33492;DHT22;20010;51.488;7.232;2022-10-26T15:56:20;19.20;99.90
33492;DHT22;20010;51.488;7.232;2022-10-26T15:58:49;19.10;99.90
33492;DHT22;20010;51.488;7.232;2022-10-26T16:01:19;19.00;99.90
33492;DHT22;20010;51.488;7.232;2022-10-26T16:03:46;19.00;99.90
33492;DHT22;20010;51.488;7.232;2022-10-26T16:08:52;18.80;99.90
33492;DHT22;20010;51.488;7.232;2022-10-26T16:11:19;18.70;99.90
33492;DHT22;20010;51.488;7.232;2022-10-26T16:13:45;18.70;99.90
33492;DHT22;20010;51.488;7.232;2022-10-26T16:16:14;18.60;99.90
33492;DHT22;20010;51.488;7.232;2022-10-26T16:18:42;18.50;99.90
33492;DHT22;20010;51.488;7.232;2022-10-26T16:21:13;18.50;99.90
33492;DHT22;20010;51.488;7.232;2022-10-26T16:23:40;18.40;99.90
33492;DHT22;20010;51.488;7.232;2022-10-26T16:26:08;18.40;99.90
33492;DHT22;20010;51.488;7.232;2022-10-26T16:28:35;18.30;99.90
33492;DHT22;20010;51.488;7.232;2022-10-26T16:31:08;18.20;99.90
33492;DHT22;20010;51.488;7.232;2022-10-26T16:33:36;18.20;99.90
33492;DHT22;20010;51.488;7.232;2022-10-26T16:36:03;18.10;99.90
33492;DHT22;20010;51.488;7.232;2022-10-26T16:38:31;18.10;99.90
33492;DHT22;20010;51.488;7.232;2022-10-26T16:41:11;18.10;99.90
33492;DHT22;20010;51.488;7.232;2022-10-26T16:43:40;18.00;99.90
33492;DHT22;20010;51.488;7.232;2022-10-26T16:46:16;18.00;99.90
33492;DHT22;20010;51.488;7.232;2022-10-26T16:48:45;18.00;99.90
33492;DHT22;20010;51.488;7.232;2022-10-26T16:53:46;17.90;99.90
33492;DHT22;20010;51.488;7.232;2022-10-26T16:56:15;17.90;99.90
33492;DHT22;20010;51.488;7.232;2022-10-26T16:58:42;17.90;99.90
33492;DHT22;20010;51.488;7.232;2022-10-26T17:01:10;17.80;99.90
33492;DHT22;20010;51.488;7.232;2022-10-26T17:03:38;17.80;99.90
33492;DHT22;20010;51.488;7.232;2022-10-26T17:06:06;17.80;99.90
33492;DHT22;20010;51.488;7.232;2022-10-26T17:08:34;17.80;99.90
33492;DHT22;20010;51.488;7.232;2022-10-26T17:11:04;17.70;99.90
33492;DHT22;20010;51.488;7.232;2022-10-26T17:13:31;17.70;99.90
33492;DHT22;20010;51.488;7.232;2022-10-26T17:16:06;17.70;99.90
33492;DHT22;20010;51.488;7.232;2022-10-26T17:18:33;17.60;99.90
33492;DHT22;20010;51.488;7.232;2022-10-26T17:21:00;17.60;99.90
33492;DHT22;20010;51.488;7.232;2022-10-26T17:23:27;17.60;99.90
33492;DHT22;20010;51.488;7.232;2022-10-26T17:26:00;17.60;99.90
33492;DHT22;20010;51.488;7.232;2022-10-26T17:28:27;17.50;99.90
33492;DHT22;20010;51.488;7.232;2022-10-26T17:31:12;17.50;99.90
33492;DHT22;20010;51.488;7.232;2022-10-26T17:33:41;17.50;99.90
33492;DHT22;20010;51.488;7.232;2022-10-26T17:36:10;17.50;99.90
33492;DHT22;20010;51.488;7.232;2022-10-26T17:38:39;17.50;99.90
33492;DHT22;20010;51.488;7.232;2022-10-26T17:41:09;17.50;99.90
33492;DHT22;20010;51.488;7.232;2022-10-26T17:43:37;17.40;99.90
33492;DHT22;20010;51.488;7.232;2022-10-26T17:46:07;17.40;99.90
33492;DHT22;20010;51.488;7.232;2022-10-26T17:48:35;17.40;99.90
33492;DHT22;20010;51.488;7.232;2022-10-26T17:51:04;17.40;99.90
33492;DHT22;20010;51.488;7.232;2022-10-26T17:53:32;17.30;99.90
33492;DHT22;20010;51.488;7.232;2022-10-26T17:58:31;17.30;99.90
33492;DHT22;20010;51.488;7.232;2022-10-26T18:01:00;17.20;99.90
33492;DHT22;20010;51.488;7.232;2022-10-26T18:03:27;17.20;99.90
33492;DHT22;20010;51.488;7.232;2022-10-26T18:05:54;17.20;99.90
33492;DHT22;20010;51.488;7.232;2022-10-26T18:08:21;17.10;99.90
33492;DHT22;20010;51.488;7.232;2022-10-26T18:10:53;17.10;99.90
33492;DHT22;20010;51.488;7.232;2022-10-26T18:13:26;17.10;99.90
33492;DHT22;20010;51.488;7.232;2022-10-26T18:15:54;17.10;99.90
33492;DHT22;20010;51.488;7.232;2022-10-26T18:18:21;17.10;99.90
33492;DHT22;20010;51.488;7.232;2022-10-26T18:20:48;17.10;99.90
33492;DHT22;20010;51.488;7.232;2022-10-26T18:23:14;17.00;99.90
33492;DHT22;20010;51.488;7.232;2022-10-26T18:25:41;17.00;99.90